Circle Line Brooklyn — WDE8160 — position and weather

sailwx.info

Track history (hours):
 
Tides and Currents Weather Stations Pressure Air Temp Water Temp Dewpoint Dewpoint Depression Visibility Wind Speed Wind Dir Waves Ship Positions

Circle Line Brooklyn

Owner: Circle Line Sight Seeing Yachts Inc., New York, NY. More information available from US FCC via Universal Licensing System and Coast Guard Vessel Documentation Center.

Last reported at 2015-Feb-01 22:09 UTC. Time now 2015-Feb-01 22:49 UTC.
Position N 40°46' W 074°00'.

; draft 2.4 m.

MMSI: 367402250.

Date/timePositionNaut miles runAvg speedWind from/ knotsBaromVisibWave heightAir tempDewpointWater temp
2015-Feb-01 22:09N 40°46' W 074°00'2 1.2
2015-Feb-01 20:33N 40°45' W 073°58'2 2.0
2015-Feb-01 19:34N 40°46' W 074°00'1 1.0
2015-Feb-01 18:34N 40°45' W 074°01'4 3.7
2015-Feb-01 17:34N 40°41' W 074°02'5 4.5
2015-Feb-01 16:33N 40°46' W 074°00'5 4.7
2015-Feb-01 15:33N 40°41' W 074°02'5 4.7
2015-Feb-01 14:33N 40°46' W 074°00'0 0.0
2015-Feb-01 13:33N 40°46' W 074°00'0 0.0
2015-Jan-31 22:04N 40°46' W 074°00'611.4
2015-Jan-31 21:32N 40°51' W 073°57'6 5.9
2015-Jan-31 20:32N 40°45' W 073°58'2 2.1
2015-Jan-31 19:34N 40°46' W 074°00'1 1.2
2015-Jan-31 18:33N 40°45' W 074°01'4 3.6
2015-Jan-31 17:33N 40°41' W 074°02'5 4.7
2015-Jan-31 16:33N 40°46' W 074°00'5 5.1
2015-Jan-31 15:33N 40°41' W 074°03'5 5.1
2015-Jan-31 14:33N 40°46' W 074°00'0 0.0
2015-Jan-31 13:33N 40°46' W 074°00'0 0.0
2015-Jan-31 12:33N 40°46' W 074°00'0 0.0
2015-Jan-30 22:28N 40°46' W 074°00'6 6.4
2015-Jan-30 21:28N 40°52' W 073°57'7 7.2
2015-Jan-30 20:32N 40°45' W 073°58'2 2.0
2015-Jan-30 19:34N 40°46' W 074°00'0 0.1
2015-Jan-30 18:33N 40°46' W 074°00'5 4.9
2015-Jan-30 17:33N 40°41' W 074°03'5 4.8
2015-Jan-30 16:32N 40°46' W 074°00'5 4.6
2015-Jan-30 15:31N 40°41' W 074°02'5 4.8
2015-Jan-30 14:32N 40°46' W 074°00'0 0.0
2015-Jan-30 13:33N 40°46' W 074°00'0 0.0
2015-Jan-29 22:21N 40°46' W 074°00'5 6.3
2015-Jan-29 21:33N 40°50' W 073°58'5 5.1
2015-Jan-29 20:33N 40°45' W 073°57'2 2.1
2015-Jan-29 19:34N 40°46' W 074°00'0 0.1
2015-Jan-29 18:33N 40°46' W 074°00'5 4.8
2015-Jan-29 17:33N 40°41' W 074°02'5 4.6
2015-Jan-29 16:31N 40°46' W 074°00'5 5.1
2015-Jan-29 15:33N 40°41' W 074°03'5 4.7
2015-Jan-29 14:31N 40°46' W 074°00'0 0.0
2015-Jan-29 13:31N 40°46' W 074°00'0 0.0
2015-Jan-29 12:31N 40°46' W 074°00'0 0.0
2015-Jan-28 22:03N 40°46' W 074°00'611.1
2015-Jan-28 21:31N 40°51' W 073°57'7 6.9
2015-Jan-28 20:33N 40°45' W 073°58'2 2.0
2015-Jan-28 19:33N 40°46' W 074°00'0 0.0
2015-Jan-28 18:33N 40°46' W 074°00'5 4.8
2015-Jan-28 17:33N 40°41' W 074°02'5 4.8
2015-Jan-28 16:33N 40°46' W 074°00'5 4.9
2015-Jan-28 15:33N 40°41' W 074°02'5 4.9
2015-Jan-28 14:33N 40°46' W 074°00'0 0.0
2015-Jan-28 13:33N 40°46' W 074°00'0 0.0
2015-Jan-28 12:33N 40°46' W 074°00'0 0.0
2015-Jan-26 19:33N 40°46' W 074°00'0 0.0
2015-Jan-26 18:33N 40°46' W 074°00'5 5.0
2015-Jan-26 17:33N 40°41' W 074°03'5 4.9
2015-Jan-26 16:33N 40°46' W 074°00'5 4.9
2015-Jan-26 15:33N 40°41' W 074°02'5 4.8
2015-Jan-26 14:32N 40°46' W 074°00'0 0.0
2015-Jan-26 13:32N 40°46' W 074°00'0 0.0
2015-Jan-25 22:05N 40°46' W 074°00'2 1.4
2015-Jan-25 20:33N 40°44' W 073°58'2 2.2
2015-Jan-25 19:33N 40°46' W 074°00'1 1.1
2015-Jan-25 18:33N 40°45' W 074°01'3 3.5
2015-Jan-25 17:33N 40°42' W 074°02'5 4.6
2015-Jan-25 16:33N 40°46' W 074°00'5 4.9
2015-Jan-25 15:33N 40°41' W 074°03'5 4.9
2015-Jan-25 14:32N 40°46' W 074°00'2 0.1
2015-Jan-24 20:33N 40°44' W 073°58'2 2.2
2015-Jan-24 19:32N 40°46' W 074°00'0 0.1
2015-Jan-24 18:33N 40°46' W 074°00'5 4.8
2015-Jan-24 17:33N 40°41' W 074°03'5 4.9
2015-Jan-24 16:33N 40°46' W 074°00'4 3.9
2015-Jan-24 15:33N 40°42' W 074°02'4 3.9
2015-Jan-24 14:32N 40°46' W 074°00'0 0.0
2015-Jan-24 13:32N 40°46' W 074°00'0 0.0
2015-Jan-23 22:05N 40°46' W 074°00'3 1.7
2015-Jan-23 20:33N 40°44' W 073°58'3 2.6
2015-Jan-23 19:32N 40°46' W 074°00'0 0.4
2015-Jan-23 18:33N 40°46' W 074°01'4 4.3
2015-Jan-23 17:33N 40°41' W 074°02'5 4.6
2015-Jan-23 16:32N 40°46' W 074°00'3 3.2
2015-Jan-23 15:33N 40°43' W 074°02'  
Track history (hours):
 
Tides and Currents Weather Stations Pressure Air Temp Water Temp Dewpoint Dewpoint Depression Visibility Wind Speed Wind Dir Waves Ship Positions

Circle Line Brooklyn

Owner: Circle Line Sight Seeing Yachts Inc., New York, NY. More information available from US FCC via Universal Licensing System and Coast Guard Vessel Documentation Center.

Last reported at 2015-Feb-01 22:09 UTC. Time now 2015-Feb-01 22:49 UTC.
Position N 40°46' W 074°00'.

; draft 2.4 m.

MMSI: 367402250.

Date/timePositionNaut miles runAvg speedWind from/ knotsBaromVisibWave heightAir tempDewpointWater temp
2015-Feb-01 22:09N 40°46' W 074°00'2 1.2
2015-Feb-01 20:33N 40°45' W 073°58'2 2.0
2015-Feb-01 19:34N 40°46' W 074°00'1 1.0
2015-Feb-01 18:34N 40°45' W 074°01'4 3.7
2015-Feb-01 17:34N 40°41' W 074°02'5 4.5
2015-Feb-01 16:33N 40°46' W 074°00'5 4.7
2015-Feb-01 15:33N 40°41' W 074°02'5 4.7
2015-Feb-01 14:33N 40°46' W 074°00'0 0.0
2015-Feb-01 13:33N 40°46' W 074°00'0 0.0
2015-Jan-31 22:04N 40°46' W 074°00'611.4
2015-Jan-31 21:32N 40°51' W 073°57'6 5.9
2015-Jan-31 20:32N 40°45' W 073°58'2 2.1
2015-Jan-31 19:34N 40°46' W 074°00'1 1.2
2015-Jan-31 18:33N 40°45' W 074°01'4 3.6
2015-Jan-31 17:33N 40°41' W 074°02'5 4.7
2015-Jan-31 16:33N 40°46' W 074°00'5 5.1
2015-Jan-31 15:33N 40°41' W 074°03'5 5.1
2015-Jan-31 14:33N 40°46' W 074°00'0 0.0
2015-Jan-31 13:33N 40°46' W 074°00'0 0.0
2015-Jan-31 12:33N 40°46' W 074°00'0 0.0
2015-Jan-30 22:28N 40°46' W 074°00'6 6.4
2015-Jan-30 21:28N 40°52' W 073°57'7 7.2
2015-Jan-30 20:32N 40°45' W 073°58'2 2.0
2015-Jan-30 19:34N 40°46' W 074°00'0 0.1
2015-Jan-30 18:33N 40°46' W 074°00'5 4.9
2015-Jan-30 17:33N 40°41' W 074°03'5 4.8
2015-Jan-30 16:32N 40°46' W 074°00'5 4.6
2015-Jan-30 15:31N 40°41' W 074°02'5 4.8
2015-Jan-30 14:32N 40°46' W 074°00'0 0.0
2015-Jan-30 13:33N 40°46' W 074°00'0 0.0
2015-Jan-29 22:21N 40°46' W 074°00'5 6.3
2015-Jan-29 21:33N 40°50' W 073°58'5 5.1
2015-Jan-29 20:33N 40°45' W 073°57'2 2.1
2015-Jan-29 19:34N 40°46' W 074°00'0 0.1
2015-Jan-29 18:33N 40°46' W 074°00'5 4.8
2015-Jan-29 17:33N 40°41' W 074°02'5 4.6
2015-Jan-29 16:31N 40°46' W 074°00'5 5.1
2015-Jan-29 15:33N 40°41' W 074°03'5 4.7
2015-Jan-29 14:31N 40°46' W 074°00'0 0.0
2015-Jan-29 13:31N 40°46' W 074°00'0 0.0
2015-Jan-29 12:31N 40°46' W 074°00'0 0.0
2015-Jan-28 22:03N 40°46' W 074°00'611.1
2015-Jan-28 21:31N 40°51' W 073°57'7 6.9
2015-Jan-28 20:33N 40°45' W 073°58'2 2.0
2015-Jan-28 19:33N 40°46' W 074°00'0 0.0
2015-Jan-28 18:33N 40°46' W 074°00'5 4.8
2015-Jan-28 17:33N 40°41' W 074°02'5 4.8
2015-Jan-28 16:33N 40°46' W 074°00'5 4.9
2015-Jan-28 15:33N 40°41' W 074°02'5 4.9
2015-Jan-28 14:33N 40°46' W 074°00'0 0.0
2015-Jan-28 13:33N 40°46' W 074°00'0 0.0
2015-Jan-28 12:33N 40°46' W 074°00'0 0.0
2015-Jan-26 19:33N 40°46' W 074°00'0 0.0
2015-Jan-26 18:33N 40°46' W 074°00'5 5.0
2015-Jan-26 17:33N 40°41' W 074°03'5 4.9
2015-Jan-26 16:33N 40°46' W 074°00'5 4.9
2015-Jan-26 15:33N 40°41' W 074°02'5 4.8
2015-Jan-26 14:32N 40°46' W 074°00'0 0.0
2015-Jan-26 13:32N 40°46' W 074°00'0 0.0
2015-Jan-25 22:05N 40°46' W 074°00'2 1.4
2015-Jan-25 20:33N 40°44' W 073°58'2 2.2
2015-Jan-25 19:33N 40°46' W 074°00'1 1.1
2015-Jan-25 18:33N 40°45' W 074°01'3 3.5
2015-Jan-25 17:33N 40°42' W 074°02'5 4.6
2015-Jan-25 16:33N 40°46' W 074°00'5 4.9
2015-Jan-25 15:33N 40°41' W 074°03'5 4.9
2015-Jan-25 14:32N 40°46' W 074°00'2 0.1
2015-Jan-24 20:33N 40°44' W 073°58'2 2.2
2015-Jan-24 19:32N 40°46' W 074°00'0 0.1
2015-Jan-24 18:33N 40°46' W 074°00'5 4.8
2015-Jan-24 17:33N 40°41' W 074°03'5 4.9
2015-Jan-24 16:33N 40°46' W 074°00'4 3.9
2015-Jan-24 15:33N 40°42' W 074°02'4 3.9
2015-Jan-24 14:32N 40°46' W 074°00'0 0.0
2015-Jan-24 13:32N 40°46' W 074°00'0 0.0
2015-Jan-23 22:05N 40°46' W 074°00'3 1.7
2015-Jan-23 20:33N 40°44' W 073°58'3 2.6
2015-Jan-23 19:32N 40°46' W 074°00'0 0.4
2015-Jan-23 18:33N 40°46' W 074°01'4 4.3
2015-Jan-23 17:33N 40°41' W 074°02'5 4.6
2015-Jan-23 16:32N 40°46' W 074°00'3 3.2
2015-Jan-23 15:33N 40°43' W 074°02'  

Dump ship's entire track history